sensor_id;sensor_type;location;lat;lon;timestamp;P1;durP1;ratioP1;P2;durP2;ratioP2
34805;SDS011;65084;42.196;25.326;2022-12-05T00:01:48;9.48;;;6.72;;
34805;SDS011;65084;42.196;25.326;2022-12-05T00:04:15;7.30;;;6.60;;
34805;SDS011;65084;42.196;25.326;2022-12-05T00:06:43;6.20;;;5.70;;
34805;SDS011;65084;42.196;25.326;2022-12-05T00:09:11;6.47;;;5.88;;
34805;SDS011;65084;42.196;25.326;2022-12-05T00:11:39;5.95;;;5.45;;
34805;SDS011;65084;42.196;25.326;2022-12-05T00:14:08;10.65;;;6.13;;
34805;SDS011;65084;42.196;25.326;2022-12-05T00:16:36;6.20;;;5.53;;
34805;SDS011;65084;42.196;25.326;2022-12-05T00:19:04;6.13;;;5.53;;
34805;SDS011;65084;42.196;25.326;2022-12-05T00:21:33;6.82;;;5.45;;
34805;SDS011;65084;42.196;25.326;2022-12-05T00:24:00;5.05;;;4.70;;
34805;SDS011;65084;42.196;25.326;2022-12-05T00:26:28;6.18;;;5.57;;
34805;SDS011;65084;42.196;25.326;2022-12-05T00:28:56;7.68;;;6.18;;
34805;SDS011;65084;42.196;25.326;2022-12-05T00:31:26;6.78;;;6.18;;
34805;SDS011;65084;42.196;25.326;2022-12-05T00:33:53;9.13;;;6.57;;
34805;SDS011;65084;42.196;25.326;2022-12-05T00:36:22;9.13;;;6.60;;
34805;SDS011;65084;42.196;25.326;2022-12-05T00:38:50;10.85;;;7.03;;
34805;SDS011;65084;42.196;25.326;2022-12-05T00:41:18;10.80;;;7.43;;
34805;SDS011;65084;42.196;25.326;2022-12-05T00:43:46;10.00;;;7.72;;
34805;SDS011;65084;42.196;25.326;2022-12-05T00:46:14;15.18;;;8.10;;
34805;SDS011;65084;42.196;25.326;2022-12-05T00:48:43;10.63;;;8.07;;
34805;SDS011;65084;42.196;25.326;2022-12-05T00:51:11;12.25;;;7.32;;
34805;SDS011;65084;42.196;25.326;2022-12-05T00:53:39;10.85;;;7.53;;
34805;SDS011;65084;42.196;25.326;2022-12-05T00:56:07;11.82;;;8.00;;
34805;SDS011;65084;42.196;25.326;2022-12-05T00:58:35;13.18;;;7.82;;
34805;SDS011;65084;42.196;25.326;2022-12-05T01:01:06;10.18;;;7.97;;
34805;SDS011;65084;42.196;25.326;2022-12-05T01:03:34;14.07;;;8.77;;
34805;SDS011;65084;42.196;25.326;2022-12-05T01:06:03;11.45;;;8.43;;
34805;SDS011;65084;42.196;25.326;2022-12-05T01:08:31;11.07;;;8.30;;
34805;SDS011;65084;42.196;25.326;2022-12-05T01:10:59;10.82;;;7.53;;
34805;SDS011;65084;42.196;25.326;2022-12-05T01:13:26;13.80;;;8.43;;
34805;SDS011;65084;42.196;25.326;2022-12-05T01:15:54;14.82;;;9.73;;
34805;SDS011;65084;42.196;25.326;2022-12-05T01:18:21;18.20;;;11.10;;
34805;SDS011;65084;42.196;25.326;2022-12-05T01:20:49;17.92;;;10.05;;
34805;SDS011;65084;42.196;25.326;2022-12-05T01:23:17;16.65;;;9.50;;
34805;SDS011;65084;42.196;25.326;2022-12-05T01:25:46;11.52;;;8.35;;
34805;SDS011;65084;42.196;25.326;2022-12-05T01:28:14;15.52;;;9.75;;
34805;SDS011;65084;42.196;25.326;2022-12-05T01:30:43;12.35;;;9.30;;
34805;SDS011;65084;42.196;25.326;2022-12-05T01:33:11;12.82;;;8.80;;
34805;SDS011;65084;42.196;25.326;2022-12-05T01:35:39;15.73;;;8.50;;
34805;SDS011;65084;42.196;25.326;2022-12-05T01:38:07;14.60;;;9.02;;
34805;SDS011;65084;42.196;25.326;2022-12-05T01:40:36;19.15;;;9.07;;
34805;SDS011;65084;42.196;25.326;2022-12-05T01:43:03;12.02;;;8.82;;
34805;SDS011;65084;42.196;25.326;2022-12-05T01:45:31;14.07;;;9.40;;
34805;SDS011;65084;42.196;25.326;2022-12-05T01:47:59;12.60;;;8.85;;
34805;SDS011;65084;42.196;25.326;2022-12-05T01:50:28;12.70;;;8.55;;
34805;SDS011;65084;42.196;25.326;2022-12-05T01:52:55;14.27;;;9.27;;
34805;SDS011;65084;42.196;25.326;2022-12-05T01:55:23;15.07;;;9.00;;
34805;SDS011;65084;42.196;25.326;2022-12-05T01:57:51;14.68;;;9.05;;
34805;SDS011;65084;42.196;25.326;2022-12-05T02:00:19;13.13;;;8.73;;
34805;SDS011;65084;42.196;25.326;2022-12-05T02:02:48;15.77;;;9.18;;
34805;SDS011;65084;42.196;25.326;2022-12-05T02:05:18;15.95;;;9.52;;
34805;SDS011;65084;42.196;25.326;2022-12-05T02:07:46;12.85;;;8.70;;
34805;SDS011;65084;42.196;25.326;2022-12-05T02:10:14;13.35;;;9.57;;
34805;SDS011;65084;42.196;25.326;2022-12-05T02:12:41;15.48;;;9.32;;
34805;SDS011;65084;42.196;25.326;2022-12-05T02:17:55;15.63;;;10.13;;
34805;SDS011;65084;42.196;25.326;2022-12-05T02:20:29;17.20;;;9.93;;
34805;SDS011;65084;42.196;25.326;2022-12-05T02:25:47;14.73;;;9.80;;
34805;SDS011;65084;42.196;25.326;2022-12-05T02:31:09;14.52;;;10.32;;
34805;SDS011;65084;42.196;25.326;2022-12-05T02:33:40;16.63;;;10.63;;
34805;SDS011;65084;42.196;25.326;2022-12-05T02:36:10;16.17;;;10.43;;
34805;SDS011;65084;42.196;25.326;2022-12-05T02:38:39;12.88;;;9.65;;
34805;SDS011;65084;42.196;25.326;2022-12-05T02:41:11;18.10;;;10.50;;
34805;SDS011;65084;42.196;25.326;2022-12-05T02:43:42;20.65;;;11.93;;
34805;SDS011;65084;42.196;25.326;2022-12-05T02:46:13;22.50;;;13.10;;
34805;SDS011;65084;42.196;25.326;2022-12-05T02:48:42;16.83;;;10.75;;
34805;SDS011;65084;42.196;25.326;2022-12-05T02:51:11;16.73;;;10.18;;
34805;SDS011;65084;42.196;25.326;2022-12-05T02:53:40;23.83;;;8.88;;
34805;SDS011;65084;42.196;25.326;2022-12-05T02:56:08;18.67;;;9.75;;
34805;SDS011;65084;42.196;25.326;2022-12-05T02:58:37;14.35;;;9.55;;
34805;SDS011;65084;42.196;25.326;2022-12-05T03:01:07;14.23;;;9.02;;
34805;SDS011;65084;42.196;25.326;2022-12-05T03:03:36;15.07;;;9.77;;
34805;SDS011;65084;42.196;25.326;2022-12-05T03:06:04;19.67;;;10.68;;
34805;SDS011;65084;42.196;25.326;2022-12-05T03:08:34;15.07;;;9.77;;
34805;SDS011;65084;42.196;25.326;2022-12-05T03:11:03;18.40;;;10.27;;
34805;SDS011;65084;42.196;25.326;2022-12-05T03:13:32;14.75;;;9.75;;
34805;SDS011;65084;42.196;25.326;2022-12-05T03:16:01;15.07;;;9.38;;
34805;SDS011;65084;42.196;25.326;2022-12-05T03:18:30;14.80;;;9.10;;
34805;SDS011;65084;42.196;25.326;2022-12-05T03:21:02;13.70;;;9.60;;
34805;SDS011;65084;42.196;25.326;2022-12-05T03:23:31;16.00;;;10.10;;
34805;SDS011;65084;42.196;25.326;2022-12-05T03:26:02;15.98;;;9.85;;
34805;SDS011;65084;42.196;25.326;2022-12-05T03:28:38;16.52;;;10.15;;
34805;SDS011;65084;42.196;25.326;2022-12-05T03:31:09;13.98;;;9.23;;
34805;SDS011;65084;42.196;25.326;2022-12-05T03:33:40;16.40;;;9.90;;
34805;SDS011;65084;42.196;25.326;2022-12-05T03:36:10;18.05;;;9.70;;
34805;SDS011;65084;42.196;25.326;2022-12-05T03:38:39;14.18;;;9.95;;
34805;SDS011;65084;42.196;25.326;2022-12-05T03:41:12;15.25;;;9.70;;
34805;SDS011;65084;42.196;25.326;2022-12-05T03:43:43;18.77;;;10.35;;
34805;SDS011;65084;42.196;25.326;2022-12-05T03:46:15;16.13;;;10.02;;
34805;SDS011;65084;42.196;25.326;2022-12-05T03:48:45;20.25;;;9.50;;
34805;SDS011;65084;42.196;25.326;2022-12-05T03:51:15;17.08;;;10.55;;
34805;SDS011;65084;42.196;25.326;2022-12-05T03:53:44;12.93;;;9.07;;
34805;SDS011;65084;42.196;25.326;2022-12-05T03:56:13;16.20;;;10.15;;
34805;SDS011;65084;42.196;25.326;2022-12-05T03:58:42;15.77;;;10.05;;
34805;SDS011;65084;42.196;25.326;2022-12-05T04:01:11;14.65;;;9.77;;
34805;SDS011;65084;42.196;25.326;2022-12-05T04:03:41;18.05;;;10.98;;
34805;SDS011;65084;42.196;25.326;2022-12-05T04:06:11;19.17;;;11.23;;
34805;SDS011;65084;42.196;25.326;2022-12-05T04:08:42;15.60;;;10.43;;
34805;SDS011;65084;42.196;25.326;2022-12-05T04:11:11;17.95;;;11.52;;
34805;SDS011;65084;42.196;25.326;2022-12-05T04:13:41;17.27;;;11.90;;
34805;SDS011;65084;42.196;25.326;2022-12-05T04:16:10;19.38;;;12.75;;
34805;SDS011;65084;42.196;25.326;2022-12-05T04:21:23;24.58;;;13.82;;
34805;SDS011;65084;42.196;25.326;2022-12-05T04:24:05;28.58;;;14.68;;
34805;SDS011;65084;42.196;25.326;2022-12-05T04:26:53;34.72;;;16.95;;
34805;SDS011;65084;42.196;25.326;2022-12-05T04:29:26;38.72;;;16.55;;
34805;SDS011;65084;42.196;25.326;2022-12-05T04:31:56;33.70;;;16.20;;
34805;SDS011;65084;42.196;25.326;2022-12-05T04:34:24;29.30;;;19.23;;
34805;SDS011;65084;42.196;25.326;2022-12-05T04:36:54;31.02;;;18.40;;
34805;SDS011;65084;42.196;25.326;2022-12-05T04:39:24;26.77;;;16.35;;
34805;SDS011;65084;42.196;25.326;2022-12-05T04:41:53;22.58;;;15.30;;
34805;SDS011;65084;42.196;25.326;2022-12-05T04:44:22;23.58;;;14.13;;
34805;SDS011;65084;42.196;25.326;2022-12-05T04:46:51;24.45;;;14.70;;
34805;SDS011;65084;42.196;25.326;2022-12-05T04:49:20;28.33;;;14.52;;
34805;SDS011;65084;42.196;25.326;2022-12-05T04:51:49;23.60;;;15.02;;
34805;SDS011;65084;42.196;25.326;2022-12-05T04:54:18;22.70;;;14.57;;
34805;SDS011;65084;42.196;25.326;2022-12-05T04:56:47;28.48;;;15.13;;
34805;SDS011;65084;42.196;25.326;2022-12-05T04:59:16;28.75;;;13.23;;
34805;SDS011;65084;42.196;25.326;2022-12-05T05:01:44;26.95;;;14.77;;
34805;SDS011;65084;42.196;25.326;2022-12-05T05:04:14;20.35;;;13.45;;
34805;SDS011;65084;42.196;25.326;2022-12-05T05:06:42;23.65;;;14.00;;
34805;SDS011;65084;42.196;25.326;2022-12-05T05:09:10;26.08;;;14.65;;
34805;SDS011;65084;42.196;25.326;2022-12-05T05:11:37;24.90;;;14.02;;
34805;SDS011;65084;42.196;25.326;2022-12-05T05:14:06;25.75;;;13.82;;
34805;SDS011;65084;42.196;25.326;2022-12-05T05:16:34;37.92;;;16.10;;
34805;SDS011;65084;42.196;25.326;2022-12-05T05:19:01;26.10;;;15.63;;
34805;SDS011;65084;42.196;25.326;2022-12-05T05:21:30;27.50;;;15.55;;
34805;SDS011;65084;42.196;25.326;2022-12-05T05:23:58;30.35;;;14.15;;
34805;SDS011;65084;42.196;25.326;2022-12-05T05:26:25;40.28;;;19.02;;
34805;SDS011;65084;42.196;25.326;2022-12-05T05:28:53;51.42;;;22.95;;
34805;SDS011;65084;42.196;25.326;2022-12-05T05:31:21;52.30;;;25.15;;
34805;SDS011;65084;42.196;25.326;2022-12-05T05:33:49;65.53;;;24.75;;
34805;SDS011;65084;42.196;25.326;2022-12-05T05:36:17;32.35;;;15.43;;
34805;SDS011;65084;42.196;25.326;2022-12-05T05:38:45;23.75;;;13.77;;
34805;SDS011;65084;42.196;25.326;2022-12-05T05:41:13;36.85;;;22.58;;
34805;SDS011;65084;42.196;25.326;2022-12-05T05:43:40;55.50;;;31.23;;
34805;SDS011;65084;42.196;25.326;2022-12-05T05:46:08;57.00;;;33.78;;
34805;SDS011;65084;42.196;25.326;2022-12-05T05:48:37;49.58;;;27.00;;
34805;SDS011;65084;42.196;25.326;2022-12-05T05:51:05;36.67;;;22.23;;
34805;SDS011;65084;42.196;25.326;2022-12-05T05:53:32;33.28;;;19.25;;
34805;SDS011;65084;42.196;25.326;2022-12-05T05:56:01;27.20;;;17.42;;
34805;SDS011;65084;42.196;25.326;2022-12-05T05:58:28;27.95;;;17.08;;
34805;SDS011;65084;42.196;25.326;2022-12-05T06:01:01;27.15;;;17.48;;
34805;SDS011;65084;42.196;25.326;2022-12-05T06:03:28;29.10;;;18.33;;
34805;SDS011;65084;42.196;25.326;2022-12-05T06:05:57;27.88;;;17.65;;
34805;SDS011;65084;42.196;25.326;2022-12-05T06:08:25;28.33;;;16.60;;
34805;SDS011;65084;42.196;25.326;2022-12-05T06:10:54;24.80;;;14.75;;
34805;SDS011;65084;42.196;25.326;2022-12-05T06:13:22;25.45;;;15.95;;
34805;SDS011;65084;42.196;25.326;2022-12-05T06:15:49;21.67;;;14.48;;
34805;SDS011;65084;42.196;25.326;2022-12-05T06:18:16;24.42;;;13.35;;
34805;SDS011;65084;42.196;25.326;2022-12-05T06:20:50;22.00;;;13.40;;
34805;SDS011;65084;42.196;25.326;2022-12-05T06:23:19;18.25;;;13.00;;
34805;SDS011;65084;42.196;25.326;2022-12-05T06:25:46;22.65;;;13.82;;
34805;SDS011;65084;42.196;25.326;2022-12-05T06:28:14;21.38;;;13.30;;
34805;SDS011;65084;42.196;25.326;2022-12-05T06:30:41;23.92;;;12.75;;
34805;SDS011;65084;42.196;25.326;2022-12-05T06:33:08;21.48;;;13.77;;
34805;SDS011;65084;42.196;25.326;2022-12-05T06:35:36;19.83;;;13.02;;
34805;SDS011;65084;42.196;25.326;2022-12-05T06:38:03;18.25;;;12.35;;
34805;SDS011;65084;42.196;25.326;2022-12-05T06:40:33;23.85;;;13.82;;
34805;SDS011;65084;42.196;25.326;2022-12-05T06:43:00;20.30;;;13.10;;
34805;SDS011;65084;42.196;25.326;2022-12-05T06:45:27;19.55;;;13.30;;
34805;SDS011;65084;42.196;25.326;2022-12-05T06:47:55;43.50;;;25.08;;
34805;SDS011;65084;42.196;25.326;2022-12-05T06:50:22;32.40;;;16.25;;
34805;SDS011;65084;42.196;25.326;2022-12-05T06:52:50;31.70;;;18.83;;
34805;SDS011;65084;42.196;25.326;2022-12-05T06:55:17;31.30;;;20.02;;
34805;SDS011;65084;42.196;25.326;2022-12-05T06:57:46;28.85;;;18.77;;
34805;SDS011;65084;42.196;25.326;2022-12-05T07:00:13;31.83;;;20.00;;
34805;SDS011;65084;42.196;25.326;2022-12-05T07:02:58;31.33;;;20.48;;
34805;SDS011;65084;42.196;25.326;2022-12-05T07:05:26;33.42;;;21.15;;
34805;SDS011;65084;42.196;25.326;2022-12-05T07:07:53;34.75;;;22.27;;
34805;SDS011;65084;42.196;25.326;2022-12-05T07:10:20;35.60;;;20.70;;
34805;SDS011;65084;42.196;25.326;2022-12-05T07:12:49;29.23;;;19.40;;
34805;SDS011;65084;42.196;25.326;2022-12-05T07:15:16;24.63;;;16.25;;
34805;SDS011;65084;42.196;25.326;2022-12-05T07:17:43;33.72;;;16.52;;
34805;SDS011;65084;42.196;25.326;2022-12-05T07:20:11;28.77;;;18.30;;
34805;SDS011;65084;42.196;25.326;2022-12-05T07:22:41;27.42;;;17.35;;
34805;SDS011;65084;42.196;25.326;2022-12-05T07:25:09;31.80;;;16.58;;
34805;SDS011;65084;42.196;25.326;2022-12-05T07:27:36;30.73;;;17.42;;
34805;SDS011;65084;42.196;25.326;2022-12-05T07:30:06;31.92;;;16.75;;
34805;SDS011;65084;42.196;25.326;2022-12-05T07:32:33;23.05;;;15.43;;
34805;SDS011;65084;42.196;25.326;2022-12-05T07:35:01;27.98;;;15.32;;
34805;SDS011;65084;42.196;25.326;2022-12-05T07:37:28;23.42;;;14.82;;
34805;SDS011;65084;42.196;25.326;2022-12-05T07:39:55;30.75;;;16.58;;
34805;SDS011;65084;42.196;25.326;2022-12-05T07:42:23;25.75;;;16.30;;
34805;SDS011;65084;42.196;25.326;2022-12-05T07:44:50;29.20;;;17.80;;
34805;SDS011;65084;42.196;25.326;2022-12-05T07:47:19;23.15;;;16.27;;
34805;SDS011;65084;42.196;25.326;2022-12-05T07:49:46;34.17;;;16.67;;
34805;SDS011;65084;42.196;25.326;2022-12-05T07:52:13;24.58;;;17.25;;
34805;SDS011;65084;42.196;25.326;2022-12-05T07:54:40;27.10;;;17.10;;
34805;SDS011;65084;42.196;25.326;2022-12-05T07:57:08;27.73;;;17.95;;
34805;SDS011;65084;42.196;25.326;2022-12-05T07:59:35;31.92;;;20.27;;
34805;SDS011;65084;42.196;25.326;2022-12-05T08:02:02;37.75;;;21.17;;
34805;SDS011;65084;42.196;25.326;2022-12-05T08:04:31;29.85;;;20.75;;
34805;SDS011;65084;42.196;25.326;2022-12-05T08:06:58;34.15;;;21.45;;
34805;SDS011;65084;42.196;25.326;2022-12-05T08:09:26;35.38;;;22.00;;
34805;SDS011;65084;42.196;25.326;2022-12-05T08:11:53;35.92;;;22.05;;
34805;SDS011;65084;42.196;25.326;2022-12-05T08:14:20;23.48;;;17.45;;
34805;SDS011;65084;42.196;25.326;2022-12-05T08:16:48;20.33;;;15.57;;
34805;SDS011;65084;42.196;25.326;2022-12-05T08:19:15;22.67;;;16.92;;
34805;SDS011;65084;42.196;25.326;2022-12-05T08:21:44;30.00;;;18.40;;
34805;SDS011;65084;42.196;25.326;2022-12-05T08:24:11;22.98;;;16.88;;
34805;SDS011;65084;42.196;25.326;2022-12-05T08:26:39;26.85;;;18.80;;
34805;SDS011;65084;42.196;25.326;2022-12-05T08:29:07;32.50;;;21.23;;
34805;SDS011;65084;42.196;25.326;2022-12-05T08:31:35;27.17;;;19.73;;
34805;SDS011;65084;42.196;25.326;2022-12-05T08:34:04;35.92;;;20.58;;
34805;SDS011;65084;42.196;25.326;2022-12-05T08:36:32;36.13;;;22.00;;
34805;SDS011;65084;42.196;25.326;2022-12-05T08:39:01;34.35;;;21.10;;
34805;SDS011;65084;42.196;25.326;2022-12-05T08:41:29;28.52;;;19.45;;
34805;SDS011;65084;42.196;25.326;2022-12-05T08:43:57;31.17;;;18.60;;
34805;SDS011;65084;42.196;25.326;2022-12-05T08:46:25;38.45;;;22.25;;
34805;SDS011;65084;42.196;25.326;2022-12-05T08:48:52;50.40;;;24.38;;
34805;SDS011;65084;42.196;25.326;2022-12-05T08:51:20;51.80;;;25.55;;
34805;SDS011;65084;42.196;25.326;2022-12-05T08:53:47;54.70;;;26.55;;
34805;SDS011;65084;42.196;25.326;2022-12-05T08:56:16;49.33;;;26.67;;
34805;SDS011;65084;42.196;25.326;2022-12-05T08:58:43;42.55;;;21.80;;
34805;SDS011;65084;42.196;25.326;2022-12-05T09:01:11;36.35;;;20.17;;
34805;SDS011;65084;42.196;25.326;2022-12-05T09:03:39;34.67;;;20.85;;
34805;SDS011;65084;42.196;25.326;2022-12-05T09:06:06;33.15;;;21.08;;
34805;SDS011;65084;42.196;25.326;2022-12-05T09:08:34;34.92;;;20.45;;
34805;SDS011;65084;42.196;25.326;2022-12-05T09:11:03;33.83;;;20.33;;
34805;SDS011;65084;42.196;25.326;2022-12-05T09:13:32;37.00;;;20.48;;
34805;SDS011;65084;42.196;25.326;2022-12-05T09:16:03;39.65;;;21.83;;
34805;SDS011;65084;42.196;25.326;2022-12-05T09:18:31;35.35;;;19.65;;
34805;SDS011;65084;42.196;25.326;2022-12-05T09:21:03;30.48;;;18.23;;
34805;SDS011;65084;42.196;25.326;2022-12-05T09:23:31;32.38;;;18.50;;
34805;SDS011;65084;42.196;25.326;2022-12-05T09:25:58;36.17;;;17.73;;
34805;SDS011;65084;42.196;25.326;2022-12-05T09:28:27;26.00;;;17.13;;
34805;SDS011;65084;42.196;25.326;2022-12-05T09:30:56;28.13;;;17.90;;
34805;SDS011;65084;42.196;25.326;2022-12-05T09:33:25;29.40;;;17.88;;
34805;SDS011;65084;42.196;25.326;2022-12-05T09:35:52;27.65;;;17.08;;
34805;SDS011;65084;42.196;25.326;2022-12-05T09:38:20;25.20;;;16.85;;
34805;SDS011;65084;42.196;25.326;2022-12-05T09:40:48;30.00;;;17.00;;
34805;SDS011;65084;42.196;25.326;2022-12-05T09:43:19;31.98;;;19.50;;
34805;SDS011;65084;42.196;25.326;2022-12-05T09:45:50;25.30;;;15.63;;
34805;SDS011;65084;42.196;25.326;2022-12-05T09:48:21;22.15;;;15.18;;
34805;SDS011;65084;42.196;25.326;2022-12-05T09:50:49;32.67;;;18.33;;
34805;SDS011;65084;42.196;25.326;2022-12-05T09:53:21;38.42;;;20.38;;
34805;SDS011;65084;42.196;25.326;2022-12-05T09:55:51;26.88;;;17.95;;
34805;SDS011;65084;42.196;25.326;2022-12-05T09:58:20;33.03;;;19.85;;
34805;SDS011;65084;42.196;25.326;2022-12-05T10:00:48;27.73;;;16.52;;
34805;SDS011;65084;42.196;25.326;2022-12-05T10:03:19;27.08;;;15.27;;
34805;SDS011;65084;42.196;25.326;2022-12-05T10:05:50;27.02;;;17.40;;
34805;SDS011;65084;42.196;25.326;2022-12-05T10:08:20;28.30;;;16.58;;
34805;SDS011;65084;42.196;25.326;2022-12-05T10:10:54;23.65;;;15.00;;
34805;SDS011;65084;42.196;25.326;2022-12-05T10:13:26;27.95;;;16.98;;
34805;SDS011;65084;42.196;25.326;2022-12-05T10:15:56;29.90;;;17.95;;
34805;SDS011;65084;42.196;25.326;2022-12-05T10:18:27;31.05;;;18.00;;
34805;SDS011;65084;42.196;25.326;2022-12-05T10:20:57;27.50;;;16.33;;
34805;SDS011;65084;42.196;25.326;2022-12-05T10:23:26;30.90;;;18.33;;
34805;SDS011;65084;42.196;25.326;2022-12-05T10:25:56;31.40;;;18.58;;
34805;SDS011;65084;42.196;25.326;2022-12-05T10:28:27;31.42;;;18.42;;
34805;SDS011;65084;42.196;25.326;2022-12-05T10:30:56;19.83;;;13.63;;
34805;SDS011;65084;42.196;25.326;2022-12-05T10:33:27;28.42;;;16.20;;
34805;SDS011;65084;42.196;25.326;2022-12-05T10:35:58;24.38;;;15.60;;
34805;SDS011;65084;42.196;25.326;2022-12-05T10:38:26;23.40;;;15.25;;
34805;SDS011;65084;42.196;25.326;2022-12-05T10:40:57;24.60;;;15.98;;
34805;SDS011;65084;42.196;25.326;2022-12-05T10:43:26;23.63;;;15.18;;
34805;SDS011;65084;42.196;25.326;2022-12-05T10:45:54;21.60;;;13.63;;
34805;SDS011;65084;42.196;25.326;2022-12-05T10:48:22;25.80;;;15.93;;
34805;SDS011;65084;42.196;25.326;2022-12-05T10:50:51;26.92;;;15.48;;
34805;SDS011;65084;42.196;25.326;2022-12-05T10:53:22;42.10;;;17.73;;
34805;SDS011;65084;42.196;25.326;2022-12-05T10:55:50;27.75;;;15.80;;
34805;SDS011;65084;42.196;25.326;2022-12-05T10:58:19;27.15;;;16.52;;
34805;SDS011;65084;42.196;25.326;2022-12-05T11:00:48;33.78;;;17.60;;
34805;SDS011;65084;42.196;25.326;2022-12-05T11:03:21;29.67;;;17.95;;
34805;SDS011;65084;42.196;25.326;2022-12-05T11:05:49;28.98;;;15.68;;
34805;SDS011;65084;42.196;25.326;2022-12-05T11:08:21;38.80;;;15.15;;
34805;SDS011;65084;42.196;25.326;2022-12-05T11:10:49;28.10;;;16.80;;
34805;SDS011;65084;42.196;25.326;2022-12-05T11:13:24;25.57;;;16.47;;
34805;SDS011;65084;42.196;25.326;2022-12-05T11:15:52;28.30;;;17.58;;
34805;SDS011;65084;42.196;25.326;2022-12-05T11:18:25;20.75;;;14.00;;
34805;SDS011;65084;42.196;25.326;2022-12-05T11:20:53;32.20;;;19.50;;
34805;SDS011;65084;42.196;25.326;2022-12-05T11:23:26;36.67;;;24.50;;
34805;SDS011;65084;42.196;25.326;2022-12-05T11:25:53;39.97;;;23.80;;
34805;SDS011;65084;42.196;25.326;2022-12-05T11:28:22;37.70;;;27.00;;
34805;SDS011;65084;42.196;25.326;2022-12-05T11:30:55;34.42;;;18.88;;
34805;SDS011;65084;42.196;25.326;2022-12-05T11:33:23;27.67;;;18.65;;
34805;SDS011;65084;42.196;25.326;2022-12-05T11:35:52;27.50;;;17.45;;
34805;SDS011;65084;42.196;25.326;2022-12-05T11:38:22;26.38;;;16.42;;
34805;SDS011;65084;42.196;25.326;2022-12-05T11:40:52;29.73;;;17.23;;
34805;SDS011;65084;42.196;25.326;2022-12-05T11:46:12;28.88;;;18.00;;
34805;SDS011;65084;42.196;25.326;2022-12-05T11:48:46;33.67;;;20.02;;
34805;SDS011;65084;42.196;25.326;2022-12-05T11:51:20;31.08;;;18.48;;
34805;SDS011;65084;42.196;25.326;2022-12-05T11:53:58;28.40;;;18.83;;
34805;SDS011;65084;42.196;25.326;2022-12-05T11:56:30;24.30;;;14.90;;
34805;SDS011;65084;42.196;25.326;2022-12-05T11:59:14;27.15;;;15.85;;
34805;SDS011;65084;42.196;25.326;2022-12-05T12:01:48;29.58;;;17.05;;
34805;SDS011;65084;42.196;25.326;2022-12-05T12:04:30;31.75;;;18.58;;
34805;SDS011;65084;42.196;25.326;2022-12-05T12:07:04;22.73;;;14.13;;
34805;SDS011;65084;42.196;25.326;2022-12-05T12:09:38;25.10;;;16.27;;
34805;SDS011;65084;42.196;25.326;2022-12-05T12:12:11;29.08;;;16.95;;
34805;SDS011;65084;42.196;25.326;2022-12-05T12:14:44;28.80;;;16.70;;
34805;SDS011;65084;42.196;25.326;2022-12-05T12:17:15;32.85;;;19.83;;
34805;SDS011;65084;42.196;25.326;2022-12-05T12:19:51;31.25;;;18.48;;
34805;SDS011;65084;42.196;25.326;2022-12-05T12:22:25;33.70;;;19.10;;
34805;SDS011;65084;42.196;25.326;2022-12-05T12:25:04;36.40;;;20.33;;
34805;SDS011;65084;42.196;25.326;2022-12-05T12:27:39;35.67;;;19.83;;
34805;SDS011;65084;42.196;25.326;2022-12-05T12:30:10;41.58;;;23.55;;
34805;SDS011;65084;42.196;25.326;2022-12-05T12:32:41;36.33;;;21.08;;
34805;SDS011;65084;42.196;25.326;2022-12-05T12:35:16;34.42;;;20.25;;
34805;SDS011;65084;42.196;25.326;2022-12-05T12:37:47;40.17;;;22.50;;
34805;SDS011;65084;42.196;25.326;2022-12-05T12:40:20;39.28;;;24.70;;
34805;SDS011;65084;42.196;25.326;2022-12-05T12:42:52;37.58;;;25.30;;
34805;SDS011;65084;42.196;25.326;2022-12-05T12:45:43;37.70;;;21.90;;
34805;SDS011;65084;42.196;25.326;2022-12-05T12:48:18;34.88;;;19.67;;
34805;SDS011;65084;42.196;25.326;2022-12-05T12:50:49;31.50;;;19.00;;
34805;SDS011;65084;42.196;25.326;2022-12-05T12:53:26;27.58;;;17.73;;
34805;SDS011;65084;42.196;25.326;2022-12-05T12:55:59;31.98;;;19.05;;
34805;SDS011;65084;42.196;25.326;2022-12-05T12:58:36;27.25;;;15.82;;
34805;SDS011;65084;42.196;25.326;2022-12-05T13:01:07;31.98;;;18.55;;
34805;SDS011;65084;42.196;25.326;2022-12-05T13:03:38;29.58;;;19.08;;
34805;SDS011;65084;42.196;25.326;2022-12-05T13:06:08;35.42;;;19.17;;
34805;SDS011;65084;42.196;25.326;2022-12-05T13:08:40;35.10;;;21.05;;
34805;SDS011;65084;42.196;25.326;2022-12-05T13:11:10;35.70;;;21.15;;
34805;SDS011;65084;42.196;25.326;2022-12-05T13:13:41;41.65;;;21.65;;
34805;SDS011;65084;42.196;25.326;2022-12-05T13:16:09;41.72;;;23.15;;
34805;SDS011;65084;42.196;25.326;2022-12-05T13:18:39;40.28;;;21.70;;
34805;SDS011;65084;42.196;25.326;2022-12-05T13:21:07;45.20;;;24.05;;
34805;SDS011;65084;42.196;25.326;2022-12-05T13:23:35;79.93;;;45.33;;
34805;SDS011;65084;42.196;25.326;2022-12-05T13:26:06;41.25;;;25.98;;
34805;SDS011;65084;42.196;25.326;2022-12-05T13:28:34;55.95;;;30.38;;
34805;SDS011;65084;42.196;25.326;2022-12-05T13:31:07;43.10;;;25.08;;
34805;SDS011;65084;42.196;25.326;2022-12-05T13:33:42;40.28;;;25.73;;
34805;SDS011;65084;42.196;25.326;2022-12-05T13:36:10;39.03;;;22.27;;
34805;SDS011;65084;42.196;25.326;2022-12-05T13:38:56;33.97;;;19.90;;
34805;SDS011;65084;42.196;25.326;2022-12-05T13:41:43;43.45;;;23.85;;
34805;SDS011;65084;42.196;25.326;2022-12-05T13:44:31;39.60;;;21.45;;
34805;SDS011;65084;42.196;25.326;2022-12-05T13:47:00;35.08;;;21.48;;
34805;SDS011;65084;42.196;25.326;2022-12-05T13:49:32;46.25;;;28.60;;
34805;SDS011;65084;42.196;25.326;2022-12-05T13:52:05;39.67;;;23.98;;
34805;SDS011;65084;42.196;25.326;2022-12-05T13:54:33;45.13;;;25.08;;
34805;SDS011;65084;42.196;25.326;2022-12-05T13:57:01;39.72;;;24.35;;
34805;SDS011;65084;42.196;25.326;2022-12-05T14:05:02;46.75;;;26.75;;
34805;SDS011;65084;42.196;25.326;2022-12-05T14:07:52;47.67;;;27.38;;
34805;SDS011;65084;42.196;25.326;2022-12-05T14:10:20;42.58;;;26.92;;
34805;SDS011;65084;42.196;25.326;2022-12-05T14:12:49;58.65;;;28.88;;
34805;SDS011;65084;42.196;25.326;2022-12-05T14:18:12;57.05;;;26.30;;
34805;SDS011;65084;42.196;25.326;2022-12-05T14:20:50;39.63;;;21.77;;
34805;SDS011;65084;42.196;25.326;2022-12-05T14:23:27;39.88;;;22.33;;
34805;SDS011;65084;42.196;25.326;2022-12-05T14:26:00;51.42;;;27.95;;
34805;SDS011;65084;42.196;25.326;2022-12-05T14:28:35;46.25;;;27.33;;
34805;SDS011;65084;42.196;25.326;2022-12-05T14:31:10;61.63;;;35.33;;
34805;SDS011;65084;42.196;25.326;2022-12-05T14:33:41;56.72;;;33.85;;
34805;SDS011;65084;42.196;25.326;2022-12-05T14:36:13;65.03;;;33.72;;
34805;SDS011;65084;42.196;25.326;2022-12-05T14:38:42;73.32;;;37.38;;
34805;SDS011;65084;42.196;25.326;2022-12-05T14:41:10;91.10;;;47.97;;
34805;SDS011;65084;42.196;25.326;2022-12-05T14:43:39;111.35;;;59.45;;
34805;SDS011;65084;42.196;25.326;2022-12-05T14:46:07;147.00;;;71.03;;
34805;SDS011;65084;42.196;25.326;2022-12-05T14:48:41;132.80;;;69.70;;